createdAt,value
2019-06-07T00:01:55.145Z,92.80
2019-06-07T00:04:26.351Z,93.00
2019-06-07T00:06:56.440Z,93.00
2019-06-07T00:09:26.600Z,93.10
2019-06-07T00:11:56.747Z,93.30
2019-06-07T00:14:28.045Z,93.40
2019-06-07T00:16:58.213Z,93.50
2019-06-07T00:19:29.410Z,93.70
2019-06-07T00:22:25.354Z,93.50
2019-06-07T00:24:31.379Z,93.90
2019-06-07T00:27:01.450Z,94.20
2019-06-07T00:29:31.575Z,94.10
2019-06-07T00:32:01.707Z,93.90
2019-06-07T00:34:31.893Z,94.00
2019-06-07T00:37:01.822Z,94.30
2019-06-07T00:39:31.717Z,94.60
2019-06-07T00:42:01.903Z,94.70
2019-06-07T00:44:32.073Z,94.90
2019-06-07T00:47:02.139Z,95.10
2019-06-07T00:49:40.489Z,95.50
2019-06-07T00:52:03.887Z,95.60
2019-06-07T00:54:33.847Z,95.40
2019-06-07T00:57:03.952Z,95.20
2019-06-07T00:59:34.039Z,95.10
2019-06-07T01:02:05.542Z,95.00
2019-06-07T01:04:35.729Z,95.30
2019-06-07T01:07:05.893Z,95.10
2019-06-07T01:09:35.896Z,95.00
2019-06-07T01:12:05.927Z,94.80
2019-06-07T01:14:36.043Z,94.90
2019-06-07T01:17:27.615Z,94.70
2019-06-07T01:19:48.219Z,94.80
2019-06-07T01:22:20.015Z,94.50
2019-06-07T01:24:49.877Z,94.20
2019-06-07T01:27:22.551Z,94.30
2019-06-07T01:29:51.786Z,94.20
2019-06-07T01:32:26.541Z,94.00
2019-06-07T01:34:53.330Z,93.70
2019-06-07T01:37:26.529Z,93.60
2019-06-07T01:39:55.071Z,93.10
2019-06-07T01:42:28.893Z,92.80
2019-06-07T01:44:56.719Z,92.40
2019-06-07T01:47:31.137Z,92.60
2019-06-07T01:49:58.665Z,91.70
2019-06-07T01:52:29.747Z,92.10
2019-06-07T01:55:00.138Z,91.50
2019-06-07T01:57:45.030Z,91.40
2019-06-07T02:00:02.132Z,91.70
2019-06-07T02:02:33.712Z,91.60
2019-06-07T02:05:05.553Z,91.10
2019-06-07T02:07:36.207Z,91.20
2019-06-07T02:10:07.184Z,90.70
2019-06-07T02:12:43.251Z,90.60
2019-06-07T02:15:10.543Z,90.70
2019-06-07T02:17:40.608Z,90.70
2019-06-07T02:20:11.122Z,90.50
2019-06-07T02:22:41.166Z,90.50
2019-06-07T02:27:43.311Z,90.50
2019-06-07T02:32:45.487Z,90.90
2019-06-07T02:35:15.817Z,90.80
2019-06-07T02:37:45.924Z,90.90
2019-06-07T02:40:16.692Z,90.90
2019-06-07T02:42:46.687Z,90.80
2019-06-07T02:45:16.869Z,90.50
2019-06-07T02:47:48.169Z,90.30
2019-06-07T02:50:18.521Z,90.30
2019-06-07T02:52:49.052Z,90.20
2019-06-07T02:55:20.364Z,90.10
2019-06-07T02:57:50.366Z,90.10
2019-06-07T03:01:06.569Z,90.10
2019-06-07T03:03:19.386Z,90.20
2019-06-07T03:05:50.038Z,90.10
2019-06-07T03:08:20.049Z,90.00
2019-06-07T03:10:51.018Z,90.10
2019-06-07T03:13:22.171Z,90.10
2019-06-07T03:15:54.361Z,90.10
2019-06-07T03:18:43.558Z,90.40
2019-06-07T03:21:16.333Z,91.00
2019-06-07T03:23:47.255Z,91.30
2019-06-07T03:26:18.403Z,91.00
2019-06-07T03:28:48.535Z,91.10
2019-06-07T03:31:18.726Z,91.30
2019-06-07T03:33:48.889Z,91.00
2019-06-07T03:36:25.588Z,91.40
2019-06-07T03:38:51.781Z,90.80
2019-06-07T03:41:21.713Z,90.90
2019-06-07T03:43:51.662Z,91.00
2019-06-07T03:46:21.603Z,91.00
2019-06-07T03:48:52.880Z,91.30
2019-06-07T03:51:25.317Z,91.20
2019-06-07T03:53:54.650Z,90.90
2019-06-07T03:56:24.598Z,90.50
2019-06-07T03:58:54.546Z,90.20
2019-06-07T04:01:24.480Z,90.10
2019-06-07T04:03:54.473Z,90.00
2019-06-07T04:06:24.504Z,89.50
2019-06-07T04:08:54.571Z,88.90
2019-06-07T04:11:24.669Z,88.20
2019-06-07T04:13:54.652Z,87.00
2019-06-07T04:16:24.666Z,86.30
2019-06-07T04:18:54.649Z,84.10
2019-06-07T04:21:24.721Z,82.60
2019-06-07T04:23:54.781Z,81.90
2019-06-07T04:26:24.838Z,80.90
2019-06-07T04:29:31.668Z,81.10
2019-06-07T04:31:26.535Z,82.50
2019-06-07T04:33:56.733Z,83.20
2019-06-07T04:36:41.823Z,83.30
2019-06-07T04:39:01.070Z,82.70
2019-06-07T04:41:36.800Z,82.80
2019-06-07T04:44:06.331Z,83.00
2019-06-07T04:46:42.606Z,83.80
2019-06-07T04:49:14.219Z,83.90
2019-06-07T04:51:45.510Z,83.60
2019-06-07T04:54:15.391Z,83.10
2019-06-07T04:56:45.417Z,82.60
2019-06-07T05:00:00.159Z,82.00
2019-06-07T05:01:48.146Z,81.00
2019-06-07T05:04:18.047Z,79.60
2019-06-07T05:06:48.029Z,76.20
2019-06-07T05:09:18.009Z,72.80
2019-06-07T05:11:48.009Z,69.80
2019-06-07T05:14:17.930Z,66.70
2019-06-07T05:16:48.002Z,65.30
2019-06-07T05:19:18.017Z,62.90
2019-06-07T05:22:02.419Z,60.90
2019-06-07T05:24:19.815Z,58.60
2019-06-07T05:26:50.013Z,56.60
2019-06-07T05:29:21.137Z,56.10
2019-06-07T05:31:51.207Z,54.60
2019-06-07T05:34:21.388Z,53.80
2019-06-07T05:37:10.557Z,52.20
2019-06-07T05:39:23.085Z,52.60
2019-06-07T05:41:53.013Z,51.50
2019-06-07T05:44:23.191Z,51.80
2019-06-07T05:46:53.157Z,51.40
2019-06-07T05:49:23.268Z,51.40
2019-06-07T05:51:53.201Z,48.50
2019-06-07T05:54:23.110Z,47.70
2019-06-07T05:56:53.185Z,48.00
2019-06-07T05:59:23.222Z,48.10
2019-06-07T06:02:02.821Z,47.90
2019-06-07T06:04:25.067Z,47.90
2019-06-07T06:06:54.937Z,47.30
2019-06-07T06:09:24.984Z,47.70
2019-06-07T06:12:02.099Z,47.10
2019-06-07T06:14:27.608Z,48.20
2019-06-07T06:16:57.631Z,47.60
2019-06-07T06:19:27.755Z,46.40
2019-06-07T06:21:58.006Z,44.80
2019-06-07T06:24:28.102Z,44.20
2019-06-07T06:27:15.271Z,43.00
2019-06-07T06:29:29.787Z,42.00
2019-06-07T06:32:40.703Z,42.00
2019-06-07T06:34:31.617Z,42.20
2019-06-07T06:37:01.618Z,42.10
2019-06-07T06:39:31.681Z,43.10
2019-06-07T06:42:03.838Z,42.60
2019-06-07T06:44:33.467Z,41.20
2019-06-07T06:47:03.491Z,40.60
2019-06-07T06:49:33.571Z,40.40
2019-06-07T06:52:03.619Z,42.10
2019-06-07T06:54:41.025Z,42.40
2019-06-07T06:57:18.997Z,40.50
2019-06-07T06:59:40.012Z,41.40
2019-06-07T07:02:08.874Z,42.20
2019-06-07T07:04:41.822Z,42.30
2019-06-07T07:07:11.366Z,43.80
2019-06-07T07:09:43.734Z,43.90
2019-06-07T07:12:14.983Z,44.80
2019-06-07T07:14:47.330Z,44.60
2019-06-07T07:17:16.446Z,43.70
2019-06-07T07:19:48.443Z,43.70
2019-06-07T07:22:18.287Z,43.30
2019-06-07T07:24:51.816Z,44.10
2019-06-07T07:27:20.416Z,45.00
2019-06-07T07:30:10.155Z,44.40
2019-06-07T07:32:22.110Z,46.20
2019-06-07T07:34:59.649Z,49.90
2019-06-07T07:37:23.628Z,51.30
2019-06-07T07:40:01.091Z,49.20
2019-06-07T07:42:25.347Z,51.00
2019-06-07T07:44:56.814Z,53.10
2019-06-07T07:47:27.147Z,53.40
2019-06-07T07:49:59.171Z,51.50
2019-06-07T07:52:28.971Z,52.50
2019-06-07T07:54:59.357Z,54.80
2019-06-07T07:57:29.520Z,56.00
2019-06-07T08:00:25.588Z,54.90
2019-06-07T08:02:31.303Z,53.90
2019-06-07T08:05:25.653Z,55.70
2019-06-07T08:07:33.513Z,56.50
2019-06-07T08:10:05.393Z,55.90
2019-06-07T08:12:55.884Z,54.70
2019-06-07T08:15:07.938Z,51.10
2019-06-07T08:17:37.972Z,49.50
2019-06-07T08:20:10.619Z,50.10
2019-06-07T08:22:40.670Z,49.80
2019-06-07T08:25:12.278Z,49.80
2019-06-07T08:27:42.457Z,48.90
2019-06-07T08:30:47.213Z,51.10
2019-06-07T08:32:46.073Z,52.20
2019-06-07T08:36:01.001Z,49.70
2019-06-07T08:38:22.823Z,48.70
2019-06-07T08:40:21.820Z,50.90
2019-06-07T08:43:10.787Z,51.20
2019-06-07T08:45:23.311Z,45.70
2019-06-07T08:47:57.998Z,42.20
2019-06-07T08:50:26.738Z,39.60
2019-06-07T08:53:03.616Z,37.60
2019-06-07T08:55:28.608Z,36.30
2019-06-07T08:58:04.216Z,37.90
2019-06-07T09:00:45.366Z,36.10
2019-06-07T09:03:06.450Z,38.10
2019-06-07T09:05:33.802Z,41.40
2019-06-07T09:08:23.867Z,40.20
2019-06-07T09:10:35.596Z,37.50
2019-06-07T09:13:11.192Z,35.30
2019-06-07T09:15:37.810Z,34.20
2019-06-07T09:20:47.961Z,33.40
2019-06-07T09:23:18.486Z,34.00
2019-06-07T09:25:57.383Z,33.70
2019-06-07T09:28:21.393Z,32.90
2019-06-07T09:30:51.639Z,33.80
2019-06-07T09:33:21.757Z,33.60
2019-06-07T09:35:52.375Z,31.40
2019-06-07T09:38:26.232Z,32.00
2019-06-07T09:40:54.133Z,30.80
2019-06-07T09:44:00.928Z,31.70
2019-06-07T09:45:57.989Z,30.50
2019-06-07T09:49:10.107Z,30.20
2019-06-07T09:51:00.891Z,31.00
2019-06-07T09:53:30.270Z,31.30
2019-06-07T09:56:05.719Z,33.10
2019-06-07T09:58:51.184Z,36.00
2019-06-07T10:01:09.939Z,36.80
2019-06-07T10:03:36.161Z,34.00
2019-06-07T10:06:12.309Z,32.70
2019-06-07T10:11:09.634Z,33.50
2019-06-07T10:13:39.651Z,33.20
2019-06-07T10:16:09.939Z,32.50
2019-06-07T10:18:39.922Z,31.40
2019-06-07T10:21:14.802Z,30.10
2019-06-07T10:23:41.803Z,30.00
2019-06-07T10:26:11.859Z,29.40
2019-06-07T10:28:41.906Z,28.00
2019-06-07T10:31:12.833Z,28.20
2019-06-07T10:33:42.982Z,28.40
2019-06-07T10:36:13.124Z,28.70
2019-06-07T10:38:43.220Z,28.70
2019-06-07T10:41:13.291Z,29.40
2019-06-07T10:43:43.242Z,28.70
2019-06-07T10:46:13.179Z,28.90
2019-06-07T10:48:43.208Z,29.40
2019-06-07T10:51:14.767Z,29.70
2019-06-07T10:53:45.278Z,29.80
2019-06-07T10:56:15.459Z,32.10
2019-06-07T10:58:45.436Z,32.60
2019-06-07T11:01:15.574Z,33.00
2019-06-07T11:03:45.514Z,35.40
2019-06-07T11:06:15.722Z,35.70
2019-06-07T11:08:45.886Z,38.40
2019-06-07T11:11:15.961Z,38.50
2019-06-07T11:13:46.998Z,38.20
2019-06-07T11:16:17.015Z,38.30
2019-06-07T11:18:47.003Z,38.40
2019-06-07T11:21:18.549Z,38.60
2019-06-07T11:23:48.683Z,38.50
2019-06-07T11:26:18.775Z,38.00
2019-06-07T11:28:48.629Z,39.00
2019-06-07T11:31:18.965Z,39.20
2019-06-07T11:33:49.205Z,37.90
2019-06-07T11:36:19.213Z,39.30
2019-06-07T11:38:49.186Z,38.20
2019-06-07T11:41:19.106Z,37.40
2019-06-07T11:43:49.162Z,37.30
2019-06-07T11:46:19.170Z,38.10
2019-06-07T11:48:49.190Z,37.90
2019-06-07T11:51:19.350Z,39.60
2019-06-07T11:53:49.358Z,39.80
2019-06-07T11:56:19.441Z,39.00
2019-06-07T11:58:49.571Z,38.60
2019-06-07T12:01:19.749Z,37.50
2019-06-07T12:03:50.943Z,38.10
2019-06-07T12:06:20.902Z,37.80
2019-06-07T12:08:51.105Z,38.20
2019-06-07T12:11:21.211Z,38.50
2019-06-07T12:13:51.212Z,38.90
2019-06-07T12:16:21.209Z,39.90
2019-06-07T12:18:51.249Z,39.30
2019-06-07T12:21:22.516Z,40.90
2019-06-07T12:23:53.106Z,38.50
2019-06-07T12:26:23.142Z,38.80
2019-06-07T12:28:53.174Z,39.70
2019-06-07T12:31:23.227Z,40.30
2019-06-07T12:33:53.222Z,40.80
2019-06-07T12:36:23.283Z,40.70
2019-06-07T12:38:53.285Z,40.20
2019-06-07T12:41:25.106Z,39.40
2019-06-07T12:43:55.039Z,39.20
2019-06-07T12:46:28.462Z,40.90
2019-06-07T12:48:56.736Z,39.70
2019-06-07T12:51:26.826Z,42.10
2019-06-07T12:53:56.908Z,40.80
2019-06-07T12:56:27.031Z,38.60
2019-06-07T12:58:57.033Z,37.50
2019-06-07T13:01:27.045Z,37.50
2019-06-07T13:03:56.959Z,37.80
2019-06-07T13:06:27.977Z,38.70
2019-06-07T13:08:58.271Z,37.70
2019-06-07T13:11:31.625Z,37.00
2019-06-07T13:14:00.180Z,35.80
2019-06-07T13:16:30.202Z,36.20
2019-06-07T13:19:00.187Z,35.70
2019-06-07T13:21:30.337Z,36.60
2019-06-07T13:24:00.301Z,35.40
2019-06-07T13:26:30.388Z,36.10
2019-06-07T13:29:00.326Z,35.00
2019-06-07T13:31:30.394Z,33.80
2019-06-07T13:34:00.470Z,34.10
2019-06-07T13:36:30.469Z,32.70
2019-06-07T13:39:00.529Z,31.30
2019-06-07T13:41:41.856Z,30.60
2019-06-07T13:44:02.785Z,34.60
2019-06-07T13:46:32.745Z,34.10
2019-06-07T13:49:02.839Z,37.50
2019-06-07T13:51:33.435Z,37.40
2019-06-07T13:54:03.783Z,37.60
2019-06-07T13:56:33.771Z,37.30
2019-06-07T13:59:03.943Z,38.10
2019-06-07T14:01:35.509Z,37.70
2019-06-07T14:04:05.602Z,36.50
2019-06-07T14:06:35.495Z,36.90
2019-06-07T14:09:07.363Z,36.10
2019-06-07T14:11:49.834Z,35.50
2019-06-07T14:14:09.276Z,35.00
2019-06-07T14:16:39.330Z,35.90
2019-06-07T14:19:09.304Z,34.80
2019-06-07T14:21:40.834Z,34.60
2019-06-07T14:24:11.051Z,34.90
2019-06-07T14:26:42.655Z,35.30
2019-06-07T14:29:12.603Z,37.40
2019-06-07T14:31:42.602Z,37.10
2019-06-07T14:34:12.710Z,36.50
2019-06-07T14:36:42.814Z,36.70
2019-06-07T14:39:12.986Z,35.30
2019-06-07T14:41:43.063Z,37.60
2019-06-07T14:44:13.110Z,36.40
2019-06-07T14:46:43.149Z,36.00
2019-06-07T14:49:13.174Z,36.70
2019-06-07T14:51:43.229Z,37.30
2019-06-07T14:54:13.847Z,35.40
2019-06-07T14:56:43.917Z,37.40
2019-06-07T14:59:14.665Z,37.00
2019-06-07T15:01:44.724Z,37.60
2019-06-07T15:04:15.588Z,36.30
2019-06-07T15:06:45.754Z,36.90
2019-06-07T15:09:15.858Z,38.70
2019-06-07T15:11:45.819Z,40.70
2019-06-07T15:14:16.889Z,38.00
2019-06-07T15:16:47.045Z,37.70
2019-06-07T15:19:17.023Z,37.00
2019-06-07T15:21:47.035Z,38.20
2019-06-07T15:24:17.020Z,36.20
2019-06-07T15:26:47.054Z,38.30
2019-06-07T15:29:17.058Z,35.80
2019-06-07T15:31:47.051Z,35.30
2019-06-07T15:34:17.026Z,34.20
2019-06-07T15:36:47.027Z,35.20
2019-06-07T15:39:17.061Z,33.00
2019-06-07T15:41:47.052Z,35.70
2019-06-07T15:44:17.055Z,35.70
2019-06-07T15:46:47.086Z,34.80
2019-06-07T15:49:17.065Z,34.20
2019-06-07T15:51:47.095Z,36.00
2019-06-07T15:54:16.992Z,38.10
2019-06-07T15:56:47.029Z,38.50
2019-06-07T15:59:17.154Z,37.60
2019-06-07T16:01:47.265Z,38.50
2019-06-07T16:04:17.324Z,40.10
2019-06-07T16:06:47.474Z,40.60
2019-06-07T16:09:17.470Z,41.00
2019-06-07T16:11:47.415Z,41.20
2019-06-07T16:14:17.462Z,41.20
2019-06-07T16:16:47.536Z,41.80
2019-06-07T16:19:17.568Z,41.80
2019-06-07T16:21:47.569Z,40.00
2019-06-07T16:24:17.695Z,40.40
2019-06-07T16:26:47.801Z,40.00
2019-06-07T16:29:17.848Z,39.60
2019-06-07T16:31:47.907Z,39.70
2019-06-07T16:34:17.988Z,39.10
2019-06-07T16:36:48.849Z,39.40
2019-06-07T16:39:18.961Z,40.70
2019-06-07T16:41:49.537Z,41.00
2019-06-07T16:44:19.581Z,40.30
2019-06-07T16:46:49.511Z,40.70
2019-06-07T16:49:19.560Z,40.20
2019-06-07T16:51:49.565Z,40.80
2019-06-07T16:54:19.592Z,42.20
2019-06-07T16:56:51.320Z,41.90
2019-06-07T16:59:21.405Z,42.30
2019-06-07T17:01:51.445Z,42.80
2019-06-07T17:04:21.523Z,42.10
2019-06-07T17:06:51.558Z,40.60
2019-06-07T17:09:21.515Z,42.10
2019-06-07T17:11:51.613Z,40.00
2019-06-07T17:14:21.590Z,39.70
2019-06-07T17:16:51.609Z,40.10
2019-06-07T17:19:23.088Z,42.10
2019-06-07T17:21:53.085Z,46.70
2019-06-07T17:24:26.608Z,48.40
2019-06-07T17:26:54.915Z,49.70
2019-06-07T17:29:24.984Z,51.10
2019-06-07T17:31:55.112Z,51.10
2019-06-07T17:34:25.293Z,51.50
2019-06-07T17:36:55.522Z,52.00
2019-06-07T17:39:25.564Z,51.50
2019-06-07T17:42:02.106Z,52.00
2019-06-07T17:44:27.333Z,52.50
2019-06-07T17:46:57.361Z,52.10
2019-06-07T17:49:28.221Z,52.20
2019-06-07T17:51:58.099Z,52.70
2019-06-07T17:54:29.190Z,53.50
2019-06-07T17:56:59.258Z,54.10
2019-06-07T17:59:29.341Z,54.70
2019-06-07T18:02:14.366Z,55.30
2019-06-07T18:04:31.182Z,56.20
2019-06-07T18:07:01.809Z,57.00
2019-06-07T18:09:34.351Z,57.70
2019-06-07T18:12:04.829Z,58.20
2019-06-07T18:14:34.892Z,58.80
2019-06-07T18:17:04.966Z,59.10
2019-06-07T18:19:35.072Z,59.70
2019-06-07T18:22:05.072Z,60.10
2019-06-07T18:24:35.067Z,60.60
2019-06-07T18:27:07.063Z,61.00
2019-06-07T18:29:36.698Z,61.70
2019-06-07T18:32:06.834Z,61.80
2019-06-07T18:34:36.877Z,62.00
2019-06-07T18:37:07.080Z,61.60
2019-06-07T18:39:37.135Z,61.40
2019-06-07T18:42:07.073Z,61.00
2019-06-07T18:44:36.915Z,61.80
2019-06-07T18:47:06.858Z,61.40
2019-06-07T18:49:36.878Z,62.10
2019-06-07T18:52:14.457Z,62.40
2019-06-07T18:54:44.529Z,61.00
2019-06-07T18:57:14.539Z,58.60
2019-06-07T18:59:44.476Z,58.40
2019-06-07T19:02:14.589Z,58.10
2019-06-07T19:04:44.525Z,58.00
2019-06-07T19:07:14.540Z,58.00
2019-06-07T19:09:45.469Z,58.00
2019-06-07T19:12:15.680Z,57.60
2019-06-07T19:14:45.676Z,57.90
2019-06-07T19:17:15.797Z,58.20
2019-06-07T19:19:45.860Z,58.30
2019-06-07T19:22:16.252Z,58.80
2019-06-07T19:24:46.250Z,59.00
2019-06-07T19:27:16.419Z,59.00
2019-06-07T19:29:46.476Z,58.90
2019-06-07T19:32:16.415Z,58.80
2019-06-07T19:34:46.396Z,58.80
2019-06-07T19:37:16.460Z,58.60
2019-06-07T19:39:46.540Z,58.80
2019-06-07T19:42:16.519Z,59.10
2019-06-07T19:44:54.235Z,59.40
2019-06-07T19:47:18.189Z,59.60
2019-06-07T19:49:48.252Z,59.30
2019-06-07T19:52:18.340Z,59.50
2019-06-07T19:54:48.368Z,59.70
2019-06-07T19:57:18.298Z,59.70
2019-06-07T19:59:48.363Z,59.50
2019-06-07T20:02:18.340Z,59.10
2019-06-07T20:04:48.734Z,59.20
2019-06-07T20:07:18.856Z,59.10
2019-06-07T20:09:48.871Z,59.20
2019-06-07T20:12:18.831Z,59.70
2019-06-07T20:14:48.880Z,59.80
2019-06-07T20:17:19.028Z,59.90
2019-06-07T20:19:49.079Z,60.00
2019-06-07T20:22:20.228Z,60.30
2019-06-07T20:24:50.268Z,60.40
2019-06-07T20:27:20.194Z,59.90
2019-06-07T20:29:50.166Z,60.30
2019-06-07T20:32:20.146Z,60.60
2019-06-07T20:34:50.367Z,60.60
2019-06-07T20:37:20.357Z,60.70
2019-06-07T20:39:50.443Z,60.50
2019-06-07T20:42:20.499Z,60.30
2019-06-07T20:44:50.536Z,60.40
2019-06-07T20:47:20.589Z,60.50
2019-06-07T20:49:50.527Z,60.30
2019-06-07T20:52:20.509Z,59.90
2019-06-07T20:54:50.562Z,59.60
2019-06-07T20:57:20.678Z,59.70
2019-06-07T20:59:50.645Z,58.80
2019-06-07T21:02:20.505Z,58.10
2019-06-07T21:04:50.735Z,58.30
2019-06-07T21:07:20.941Z,58.60
2019-06-07T21:09:50.964Z,58.80
2019-06-07T21:12:21.079Z,59.30
2019-06-07T21:14:51.143Z,59.60
2019-06-07T21:17:21.072Z,59.90
2019-06-07T21:19:51.432Z,60.30
2019-06-07T21:22:21.924Z,60.90
2019-06-07T21:24:52.013Z,61.40
2019-06-07T21:27:22.080Z,62.20
2019-06-07T21:29:52.139Z,62.70
2019-06-07T21:32:21.983Z,62.90
2019-06-07T21:34:51.961Z,63.50
2019-06-07T21:37:21.959Z,63.90
2019-06-07T21:39:52.117Z,64.00
2019-06-07T21:42:22.205Z,63.90
2019-06-07T21:44:52.214Z,64.30
2019-06-07T21:47:22.307Z,64.60
2019-06-07T21:49:52.240Z,65.10
2019-06-07T21:52:22.222Z,66.10
2019-06-07T21:54:52.373Z,67.70
2019-06-07T21:57:22.379Z,67.30
2019-06-07T21:59:52.420Z,67.70
2019-06-07T22:02:22.565Z,68.00
2019-06-07T22:04:52.796Z,68.30
2019-06-07T22:07:22.799Z,68.90
2019-06-07T22:09:52.769Z,69.10
2019-06-07T22:12:22.766Z,69.00
2019-06-07T22:14:52.909Z,69.40
2019-06-07T22:17:22.906Z,69.80
2019-06-07T22:19:53.111Z,70.30
2019-06-07T22:22:23.247Z,70.50
2019-06-07T22:24:53.384Z,70.80
2019-06-07T22:27:23.364Z,70.80
2019-06-07T22:29:53.382Z,70.70
2019-06-07T22:32:23.412Z,70.40
2019-06-07T22:34:53.381Z,69.90
2019-06-07T22:37:23.714Z,69.60
2019-06-07T22:39:54.929Z,69.70
2019-06-07T22:42:24.956Z,69.10
2019-06-07T22:44:55.107Z,67.90
2019-06-07T22:47:25.125Z,68.00
2019-06-07T22:49:55.126Z,67.80
2019-06-07T22:52:25.236Z,67.70
2019-06-07T22:54:55.255Z,67.30
2019-06-07T22:57:28.006Z,67.30
2019-06-07T22:59:57.947Z,67.30
2019-06-07T23:02:28.005Z,67.20
2019-06-07T23:04:58.143Z,67.20
2019-06-07T23:07:28.168Z,66.90
2019-06-07T23:09:58.291Z,66.80
2019-06-07T23:12:28.243Z,66.80
2019-06-07T23:14:58.253Z,66.70
2019-06-07T23:17:28.292Z,67.00
2019-06-07T23:19:58.355Z,67.40
2019-06-07T23:22:28.475Z,68.20
2019-06-07T23:24:58.541Z,69.00
2019-06-07T23:27:28.574Z,69.10
2019-06-07T23:29:58.749Z,69.40
2019-06-07T23:32:28.721Z,70.00
2019-06-07T23:34:58.705Z,70.20
2019-06-07T23:37:28.696Z,70.50
2019-06-07T23:39:58.849Z,70.70
2019-06-07T23:42:29.030Z,70.60
2019-06-07T23:44:59.037Z,70.80
2019-06-07T23:47:29.001Z,70.90
2019-06-07T23:49:59.030Z,71.00
2019-06-07T23:52:29.024Z,71.00
2019-06-07T23:54:58.987Z,71.50
2019-06-07T23:57:29.046Z,71.90
2019-06-07T23:59:59.135Z,72.40
